createdAt,value
2022-12-12T00:00:42.853Z,18.3
2022-12-12T00:03:48.118Z,21.4
2022-12-12T00:06:36.859Z,22.3
2022-12-12T00:09:24.639Z,16.9
2022-12-12T00:12:12.194Z,19.5
2022-12-12T00:15:00.193Z,18.3
2022-12-12T00:17:49.622Z,21.3
2022-12-12T00:20:37.161Z,19.9
2022-12-12T00:23:24.703Z,23.4
2022-12-12T00:26:12.514Z,20.7
2022-12-12T00:29:04.373Z,19
2022-12-12T00:31:52.091Z,16.8
2022-12-12T00:34:39.523Z,20.6
2022-12-12T00:37:27.109Z,22
2022-12-12T00:40:14.642Z,18.3
2022-12-12T00:43:02.471Z,18.1
2022-12-12T00:45:50.006Z,19.5
2022-12-12T00:48:38.153Z,15.4
2022-12-12T00:51:25.842Z,17.7
2022-12-12T00:54:15.092Z,15.8
2022-12-12T00:57:02.654Z,14.5
2022-12-12T00:59:50.353Z,16.7
2022-12-12T01:02:37.855Z,15.4
2022-12-12T01:05:26.117Z,17.1
2022-12-12T01:08:14.823Z,16.4
2022-12-12T01:11:02.409Z,14.4
2022-12-12T01:13:50.358Z,18.5
2022-12-12T01:16:39.929Z,20.7
2022-12-12T01:19:27.697Z,16.8
2022-12-12T01:22:15.260Z,14.4
2022-12-12T01:25:02.731Z,15.6
2022-12-12T01:27:50.819Z,17.5
2022-12-12T01:30:38.407Z,15.1
2022-12-12T01:33:26.348Z,15.1
2022-12-12T01:36:14.017Z,16.8
2022-12-12T01:39:05.385Z,17.5
2022-12-12T01:41:52.865Z,15.5
2022-12-12T01:44:40.396Z,13.3
2022-12-12T01:47:30.375Z,13.9
2022-12-12T01:50:18.010Z,14.3
2022-12-12T01:53:05.851Z,16.3
2022-12-12T01:55:53.888Z,14.5
2022-12-12T01:58:42.519Z,13.6
2022-12-12T02:01:34.025Z,14.5
2022-12-12T02:04:22.473Z,13.3
2022-12-12T02:07:12.940Z,14.3
2022-12-12T02:10:02.639Z,15.6
2022-12-12T02:12:52.189Z,13.3
2022-12-12T02:15:45.034Z,14.3
2022-12-12T02:18:43.692Z,13.7
2022-12-12T02:21:42.285Z,18.2
2022-12-12T02:24:37.374Z,16.4
2022-12-12T02:27:52.100Z,12.6
2022-12-12T02:30:58.566Z,15.5
2022-12-12T02:33:59.282Z,11.6
2022-12-12T02:36:52.579Z,13.6
2022-12-12T02:39:49.675Z,14.2
2022-12-12T02:42:46.655Z,14.4
2022-12-12T02:45:42.391Z,15
2022-12-12T02:48:35.556Z,16.4
2022-12-12T02:51:31.911Z,14.7
2022-12-12T02:54:20.943Z,14.6
2022-12-12T02:57:09.052Z,12.1
2022-12-12T03:00:01.147Z,14.4
2022-12-12T03:02:52.999Z,15.8
2022-12-12T03:06:49.527Z,14.2
2022-12-12T03:10:20.241Z,12.6
2022-12-12T03:13:24.483Z,15.9
2022-12-12T03:16:21.478Z,13.9
2022-12-12T03:19:13.567Z,15.8
2022-12-12T03:22:07.853Z,14
2022-12-12T03:25:05.308Z,15.7
2022-12-12T03:27:58.737Z,13.1
2022-12-12T03:30:51.273Z,12.5
2022-12-12T03:33:42.767Z,13.1
2022-12-12T03:36:35.750Z,13.2
2022-12-12T03:39:28.081Z,12.7
2022-12-12T03:42:20.642Z,12.1
2022-12-12T03:45:13.366Z,12.5
2022-12-12T03:48:08.775Z,12.6
2022-12-12T03:51:01.302Z,11.6
2022-12-12T03:53:52.915Z,14.2
2022-12-12T03:56:48.993Z,12.3
2022-12-12T03:59:41.703Z,13.8
2022-12-12T04:02:32.805Z,13.3
2022-12-12T04:05:26.377Z,14.4
2022-12-12T04:08:22.978Z,12.7
2022-12-12T04:11:11.978Z,16.1
2022-12-12T04:15:09.062Z,13
2022-12-12T04:18:10.991Z,11.8
2022-12-12T04:21:05.556Z,12
2022-12-12T04:26:10.915Z,12.3
2022-12-12T04:29:34.844Z,12.2
2022-12-12T04:32:27.485Z,14.1
2022-12-12T04:35:20.883Z,13.6
2022-12-12T04:38:12.573Z,12.7
2022-12-12T04:41:06.354Z,11.5
2022-12-12T04:43:57.531Z,14.3
2022-12-12T04:46:48.200Z,13
2022-12-12T04:49:40.372Z,15.1
2022-12-12T04:52:31.682Z,12.7
2022-12-12T04:55:20.317Z,11.8
2022-12-12T04:58:12.406Z,13.2
2022-12-12T05:01:00.487Z,13.3
2022-12-12T05:03:54.850Z,14.3
2022-12-12T05:06:46.026Z,12
2022-12-12T05:09:40.237Z,11.8
2022-12-12T05:12:29.383Z,12.6
2022-12-12T05:15:24.886Z,13.3
2022-12-12T05:18:14.481Z,12.7
2022-12-12T05:21:02.542Z,13.8
2022-12-12T05:23:50.571Z,11.3
2022-12-12T05:26:38.150Z,14.4
2022-12-12T05:29:26.531Z,13.3
2022-12-12T05:32:14.148Z,12.3
2022-12-12T05:35:01.808Z,11.2
2022-12-12T05:37:52.214Z,11.2
2022-12-12T05:40:40.109Z,11.4
2022-12-12T05:43:27.613Z,11.4
2022-12-12T05:46:15.350Z,12.8
2022-12-12T05:49:02.988Z,11.7
2022-12-12T05:51:50.581Z,12.9
2022-12-12T05:54:38.104Z,12.2
2022-12-12T05:57:25.854Z,14.2
2022-12-12T06:00:13.575Z,12.7
2022-12-12T06:03:01.511Z,11.8
2022-12-12T06:05:49.525Z,15.2
2022-12-12T06:08:37.200Z,11
2022-12-12T06:11:24.795Z,14
2022-12-12T06:14:12.730Z,8.8
2022-12-12T06:17:01.167Z,14
2022-12-12T06:19:49.123Z,12
2022-12-12T06:22:37.858Z,12.4
2022-12-12T06:25:26.907Z,13.7
2022-12-12T06:28:14.871Z,13
2022-12-12T06:31:04.566Z,11.9
2022-12-12T06:33:55.761Z,12.9
2022-12-12T06:36:43.428Z,11.5
2022-12-12T06:39:31.252Z,13
2022-12-12T06:42:18.910Z,13
2022-12-12T06:45:06.423Z,11.4
2022-12-12T06:47:54.716Z,13.9
2022-12-12T06:50:42.151Z,12.2
2022-12-12T06:53:30.829Z,13.1
2022-12-12T06:56:18.593Z,10.9
2022-12-12T06:59:08.645Z,15.5
2022-12-12T07:01:57.420Z,13.7
2022-12-12T07:04:45.711Z,17.4
2022-12-12T07:07:33.293Z,13
2022-12-12T07:10:21.524Z,11.1
2022-12-12T07:13:09.180Z,14.2
2022-12-12T07:15:57.777Z,11.3
2022-12-12T07:18:45.997Z,13.1
2022-12-12T07:21:34.114Z,12.3
2022-12-12T07:24:22.102Z,9.5
2022-12-12T07:27:09.594Z,12
2022-12-12T07:29:57.199Z,14
2022-12-12T07:32:44.763Z,13.4
2022-12-12T07:35:32.182Z,11.3
2022-12-12T07:38:20.127Z,14.4
2022-12-12T07:41:07.645Z,12.4
2022-12-12T07:43:58.963Z,9.8
2022-12-12T07:46:46.577Z,12.3
2022-12-12T07:49:34.296Z,11.7
2022-12-12T07:52:21.999Z,11.7
2022-12-12T07:55:09.663Z,7.2
2022-12-12T07:57:57.667Z,11.2
2022-12-12T08:00:45.401Z,9.7
2022-12-12T08:03:32.996Z,10.1
2022-12-12T08:06:20.726Z,8.9
2022-12-12T08:09:08.997Z,9
2022-12-12T08:11:56.672Z,8.7
2022-12-12T08:14:44.853Z,8.8
2022-12-12T08:17:33.085Z,10.3
2022-12-12T08:20:20.627Z,10
2022-12-12T08:23:08.271Z,7.8
2022-12-12T08:25:56.427Z,8.3
2022-12-12T08:28:49.823Z,10.1
2022-12-12T08:31:37.538Z,8.4
2022-12-12T08:34:25.692Z,10.1
2022-12-12T08:37:13.351Z,7.7
2022-12-12T08:40:01.093Z,8.3
2022-12-12T08:42:50.658Z,6.8
2022-12-12T08:45:38.279Z,9.1
2022-12-12T08:48:25.980Z,9.2
2022-12-12T08:51:13.865Z,8.5
2022-12-12T08:54:02.924Z,9
2022-12-12T08:56:50.871Z,9.3
2022-12-12T08:59:38.483Z,10.4
2022-12-12T09:02:26.187Z,8.5
2022-12-12T09:05:14.172Z,11
2022-12-12T09:08:02.323Z,8.3
2022-12-12T09:10:50.183Z,6.7
2022-12-12T09:13:37.891Z,7.8
2022-12-12T09:16:25.986Z,6.5
2022-12-12T09:19:14.803Z,7.6
2022-12-12T09:22:02.798Z,5.2
2022-12-12T09:24:50.362Z,6.5
2022-12-12T09:27:38.279Z,7
2022-12-12T09:30:25.813Z,6.6
2022-12-12T09:33:13.479Z,7.7
2022-12-12T09:36:02.346Z,7
2022-12-12T09:38:52.421Z,6.5
2022-12-12T09:41:40.102Z,7.4
2022-12-12T09:44:27.612Z,7.9
2022-12-12T09:47:15.151Z,6.7
2022-12-12T09:50:09.236Z,5.6
2022-12-12T09:53:04.109Z,5
2022-12-12T09:55:56.248Z,8.8
2022-12-12T09:58:56.492Z,7.2
2022-12-12T10:01:51.171Z,7.7
2022-12-12T10:04:51.147Z,4.8
2022-12-12T10:07:46.398Z,8
2022-12-12T10:10:42.913Z,6
2022-12-12T10:13:33.500Z,7.1
2022-12-12T10:16:22.186Z,9.8
2022-12-12T10:19:10.610Z,7.3
2022-12-12T10:22:05.979Z,8.3
2022-12-12T10:25:01.540Z,9.6
2022-12-12T10:28:00.767Z,7.7
2022-12-12T10:30:55.156Z,9.6
2022-12-12T10:33:55.268Z,5.9
2022-12-12T10:36:56.532Z,8.2
2022-12-12T10:40:03.391Z,6.6
2022-12-12T10:43:08.065Z,6.1
2022-12-12T10:46:03.890Z,6.2
2022-12-12T10:49:04.391Z,5.5
2022-12-12T10:52:00.341Z,5.9
2022-12-12T10:54:50.954Z,5.8
2022-12-12T10:57:43.151Z,6.6
2022-12-12T11:00:31.123Z,5.7
2022-12-12T11:03:21.611Z,5.3
2022-12-12T11:06:13.788Z,4.6
2022-12-12T11:09:06.164Z,4.2
2022-12-12T11:12:02.103Z,5.1
2022-12-12T11:14:58.597Z,5.7
2022-12-12T11:17:51.576Z,5.4
2022-12-12T11:20:41.879Z,4.1
2022-12-12T11:23:32.368Z,7.2
2022-12-12T11:26:24.360Z,4.1
2022-12-12T11:29:14.282Z,3.7
2022-12-12T11:32:27.695Z,4
2022-12-12T11:35:22.840Z,5.3
2022-12-12T11:38:14.581Z,4.1
2022-12-12T11:41:05.091Z,3.6
2022-12-12T11:43:55.888Z,4.5
2022-12-12T11:46:46.061Z,3.6
2022-12-12T11:49:33.665Z,4.4
2022-12-12T11:52:31.173Z,6.4
2022-12-12T11:55:19.458Z,5.6
2022-12-12T11:58:17.419Z,3.4
2022-12-12T12:01:11.722Z,4.1
2022-12-12T12:04:08.807Z,4.5
2022-12-12T12:07:15.009Z,3.7
2022-12-12T12:10:26.298Z,4
2022-12-12T12:13:27.371Z,7.2
2022-12-12T12:16:32.923Z,4.7
2022-12-12T12:19:33.639Z,5.4
2022-12-12T12:22:28.654Z,8.7
2022-12-12T12:25:30.151Z,6
2022-12-12T12:28:28.875Z,6.6
2022-12-12T12:31:36.266Z,6.1
2022-12-12T12:34:30.822Z,5.9
2022-12-12T12:37:29.326Z,5.4
2022-12-12T12:40:31.956Z,5.2
2022-12-12T12:43:35.277Z,5.7
2022-12-12T12:46:38.309Z,5.4
2022-12-12T12:49:34.251Z,6.2
2022-12-12T12:52:28.230Z,6.9
2022-12-12T12:55:19.878Z,6.8
2022-12-12T12:58:13.642Z,6.6
2022-12-12T13:01:06.737Z,8.2
2022-12-12T13:03:59.307Z,6.6
2022-12-12T13:06:50.888Z,8.8
2022-12-12T13:09:43.978Z,5.7
2022-12-12T13:12:40.853Z,5.2
2022-12-12T13:15:32.826Z,6.6
2022-12-12T13:18:25.337Z,8.8
2022-12-12T13:21:16.404Z,8.8
2022-12-12T13:24:15.258Z,6.8
2022-12-12T13:27:06.608Z,8.8
2022-12-12T13:30:01.787Z,7.6
2022-12-12T13:33:02.120Z,7
2022-12-12T13:36:13.467Z,7.2
2022-12-12T13:39:07.461Z,7.7
2022-12-12T13:42:10.163Z,7
2022-12-12T13:44:59.303Z,6.5
2022-12-12T13:48:21.134Z,7.8
2022-12-12T13:51:28.585Z,6.9
2022-12-12T13:54:19.514Z,7.2
2022-12-12T13:57:40.219Z,9
2022-12-12T14:01:01.349Z,9.1
2022-12-12T14:04:24.886Z,7.9
2022-12-12T14:07:15.886Z,6.4
2022-12-12T14:10:07.914Z,7.2
2022-12-12T14:13:09.354Z,7.5
2022-12-12T14:16:24.807Z,6.1
2022-12-12T14:19:12.906Z,6.1
2022-12-12T14:22:14.022Z,10.6
2022-12-12T14:25:12.001Z,9
2022-12-12T14:28:05.531Z,9.4
2022-12-12T14:31:04.940Z,7.8
2022-12-12T14:33:59.981Z,8.7
2022-12-12T14:37:02.120Z,10.1
2022-12-12T14:40:30.110Z,8.4
2022-12-12T14:43:22.947Z,8.4
2022-12-12T14:46:15.070Z,8.1
2022-12-12T14:49:04.603Z,8.4
2022-12-12T14:51:58.049Z,10.8
2022-12-12T14:54:46.163Z,8.1
2022-12-12T14:57:35.534Z,8.4
2022-12-12T15:00:23.332Z,12.3
2022-12-12T15:03:12.770Z,10.3
2022-12-12T15:06:01.452Z,9
2022-12-12T15:09:14.610Z,8.8
2022-12-12T15:12:07.689Z,11.7
2022-12-12T15:15:00.730Z,8.6
2022-12-12T15:17:50.369Z,8.3
2022-12-12T15:20:39.356Z,8.6
2022-12-12T15:23:26.971Z,9.9
2022-12-12T15:26:14.628Z,7
2022-12-12T15:29:05.663Z,7.7
2022-12-12T15:31:58.626Z,9.2
2022-12-12T15:34:49.249Z,12.3
2022-12-12T15:37:47.365Z,8.4
2022-12-12T15:40:41.093Z,10.6
2022-12-12T15:43:32.855Z,11.4
2022-12-12T15:46:21.880Z,12.2
2022-12-12T15:49:09.687Z,10.9
2022-12-12T15:52:22.244Z,9
2022-12-12T15:55:13.723Z,10.2
2022-12-12T15:58:05.864Z,9.8
2022-12-12T16:01:05.992Z,11.3
2022-12-12T16:04:03.313Z,10
2022-12-12T16:07:07.608Z,9
2022-12-12T16:10:06.112Z,9.9
2022-12-12T16:13:10.108Z,8
2022-12-12T16:16:09.339Z,10.5
2022-12-12T16:19:30.168Z,10.5
2022-12-12T16:22:26.837Z,10.4
2022-12-12T16:25:18.949Z,9.3
2022-12-12T16:28:10.367Z,11.8
2022-12-12T16:31:04.368Z,8.6
2022-12-12T16:34:00.169Z,11.1
2022-12-12T16:36:49.412Z,10.8
2022-12-12T16:39:37.613Z,12
2022-12-12T16:42:25.616Z,12
2022-12-12T16:45:13.725Z,10.2
2022-12-12T16:48:01.434Z,8.2
2022-12-12T16:50:59.297Z,10.4
2022-12-12T16:53:49.717Z,8.7
2022-12-12T16:56:37.436Z,12.9
2022-12-12T16:59:24.939Z,11.6
2022-12-12T17:02:12.883Z,10.3
2022-12-12T17:05:04.993Z,15.9
2022-12-12T17:07:57.582Z,13.8
2022-12-12T17:10:45.106Z,14.4
2022-12-12T17:13:36.015Z,11.5
2022-12-12T17:16:28.036Z,13.6
2022-12-12T17:19:15.977Z,14.3
2022-12-12T17:22:03.748Z,10.6
2022-12-12T17:24:51.368Z,11.9
2022-12-12T17:27:38.837Z,11.4
2022-12-12T17:30:27.358Z,12.4
2022-12-12T17:33:18.073Z,14.2
2022-12-12T17:36:05.836Z,12.6
2022-12-12T17:38:54.413Z,20.9
2022-12-12T17:41:42.776Z,15.5
2022-12-12T17:44:30.312Z,23.1
2022-12-12T17:47:18.202Z,13.8
2022-12-12T17:50:05.718Z,15.8
2022-12-12T17:52:55.032Z,13.4
2022-12-12T17:55:51.382Z,21.7
2022-12-12T17:58:43.704Z,11
2022-12-12T18:01:34.095Z,12
2022-12-12T18:04:27.443Z,12.7
2022-12-12T18:07:20.496Z,13.3
2022-12-12T18:10:08.048Z,10.7
2022-12-12T18:12:55.981Z,13.5
2022-12-12T18:15:43.629Z,11.7
2022-12-12T18:18:31.372Z,12.2
2022-12-12T18:21:43.386Z,12.5
2022-12-12T18:24:46.559Z,15
2022-12-12T18:27:35.000Z,10.2
2022-12-12T18:30:22.728Z,12.8
2022-12-12T18:33:10.381Z,12.1
2022-12-12T18:35:57.945Z,12
2022-12-12T18:38:48.198Z,11
2022-12-12T18:41:36.973Z,14.9
2022-12-12T18:44:24.599Z,14.2
2022-12-12T18:47:12.257Z,13.2
2022-12-12T18:50:00.073Z,15.2
2022-12-12T18:52:49.446Z,15.2
2022-12-12T18:55:37.359Z,11
2022-12-12T18:58:26.586Z,12
2022-12-12T19:01:14.107Z,12.4
2022-12-12T19:04:09.056Z,13.2
2022-12-12T19:06:59.847Z,13.6
2022-12-12T19:09:47.557Z,10.6
2022-12-12T19:12:35.472Z,14.4
2022-12-12T19:15:23.087Z,12.6
2022-12-12T19:18:10.580Z,12
2022-12-12T19:20:58.135Z,11.2
2022-12-12T19:23:50.294Z,12.4
2022-12-12T19:26:38.092Z,12.4
2022-12-12T19:29:28.935Z,15.1
2022-12-12T19:32:17.890Z,14.4
2022-12-12T19:35:05.589Z,12.6
2022-12-12T19:37:54.630Z,12.1
2022-12-12T19:40:42.193Z,14.8
2022-12-12T19:43:30.512Z,15.3
2022-12-12T19:46:18.360Z,13.1
2022-12-12T19:49:07.870Z,10.5
2022-12-12T19:51:58.366Z,12.9
2022-12-12T19:54:46.385Z,10.8
2022-12-12T19:57:34.064Z,13.1
2022-12-12T20:00:21.670Z,12.8
2022-12-12T20:03:10.578Z,16.7
2022-12-12T20:05:58.125Z,13.8
2022-12-12T20:08:47.257Z,14
2022-12-12T20:11:35.998Z,13.3
2022-12-12T20:14:24.624Z,11.6
2022-12-12T20:17:15.163Z,13.7
2022-12-12T20:20:02.885Z,10.5
2022-12-12T20:22:52.669Z,10.4
2022-12-12T20:25:40.250Z,15.6
2022-12-12T20:28:27.795Z,11.2
2022-12-12T20:31:15.553Z,10.5
2022-12-12T20:34:05.230Z,12.4
2022-12-12T20:36:52.853Z,10.2
2022-12-12T20:39:40.812Z,11.6
2022-12-12T20:42:28.395Z,14
2022-12-12T20:45:16.758Z,14.2
2022-12-12T20:48:07.760Z,11
2022-12-12T20:50:55.694Z,12.4
2022-12-12T20:53:43.451Z,14
2022-12-12T20:56:33.700Z,10.7
2022-12-12T20:59:21.453Z,12
2022-12-12T21:02:09.926Z,10.4
2022-12-12T21:04:57.609Z,19.8
2022-12-12T21:07:45.301Z,9.5
2022-12-12T21:10:33.010Z,12.9
2022-12-12T21:13:20.594Z,11.6
2022-12-12T21:16:08.306Z,13.1
2022-12-12T21:18:57.144Z,12.7
2022-12-12T21:21:47.270Z,12.5
2022-12-12T21:24:35.413Z,16.5
2022-12-12T21:27:23.443Z,11.3
2022-12-12T21:30:11.631Z,11.1
2022-12-12T21:32:59.332Z,7.7
2022-12-12T21:35:46.966Z,14.1
2022-12-12T21:38:34.466Z,11.2
2022-12-12T21:41:22.958Z,10.8
2022-12-12T21:44:11.838Z,10.5
2022-12-12T21:47:00.435Z,9.1
2022-12-12T21:49:48.071Z,11.4
2022-12-12T21:52:36.071Z,10.1
2022-12-12T21:55:23.672Z,11.1
2022-12-12T21:58:11.718Z,11.6
2022-12-12T22:00:59.186Z,8.5
2022-12-12T22:03:51.390Z,8.1
2022-12-12T22:06:40.098Z,9.2
2022-12-12T22:09:30.835Z,8.2
2022-12-12T22:12:18.999Z,6.9
2022-12-12T22:15:06.873Z,8
2022-12-12T22:17:55.348Z,13.4
2022-12-12T22:20:42.914Z,9.3
2022-12-12T22:23:30.390Z,7.9
2022-12-12T22:26:19.862Z,8.4
2022-12-12T22:29:09.205Z,7.6
2022-12-12T22:31:59.124Z,9.3
2022-12-12T22:34:46.632Z,8.5
2022-12-12T22:37:34.116Z,7.6
2022-12-12T22:40:21.684Z,7.7
2022-12-12T22:43:09.185Z,7.5
2022-12-12T22:45:56.779Z,7.9
2022-12-12T22:48:49.537Z,8
2022-12-12T22:51:38.151Z,7.4
2022-12-12T22:54:25.672Z,5
2022-12-12T22:57:13.501Z,6.1
2022-12-12T23:00:01.480Z,8.2
2022-12-12T23:02:54.997Z,8.7
2022-12-12T23:05:42.712Z,7.8
2022-12-12T23:08:30.318Z,7.6
2022-12-12T23:11:18.262Z,8.3
2022-12-12T23:14:07.511Z,6.8
2022-12-12T23:16:59.377Z,8.4
2022-12-12T23:19:46.977Z,7.1
2022-12-12T23:22:34.619Z,6.4
2022-12-12T23:25:22.311Z,9.8
2022-12-12T23:28:13.883Z,7.9
2022-12-12T23:31:01.630Z,7.1
2022-12-12T23:33:53.663Z,10.6
2022-12-12T23:36:43.551Z,9.1
2022-12-12T23:39:31.484Z,8.4
2022-12-12T23:42:19.103Z,9.1
2022-12-12T23:45:06.801Z,9.2
2022-12-12T23:47:54.940Z,9.6
2022-12-12T23:50:42.489Z,10.4
2022-12-12T23:53:30.042Z,10.7
2022-12-12T23:56:17.840Z,11.5
2022-12-12T23:59:05.600Z,9.1
